sensor_id;sensor_type;location;lat;lon;timestamp;pressure;altitude;pressure_sealevel;temperature;humidity
48790;BME280;41718;51.980;5.734;2023-06-19T00:01:59;100590.91;;;21.40;100.00
48790;BME280;41718;51.980;5.734;2023-06-19T00:07:01;100594.03;;;21.52;100.00
48790;BME280;41718;51.980;5.734;2023-06-19T00:12:03;100591.34;;;21.53;100.00
48790;BME280;41718;51.980;5.734;2023-06-19T00:17:05;100586.56;;;21.64;100.00
48790;BME280;41718;51.980;5.734;2023-06-19T00:22:07;100594.53;;;21.63;100.00
48790;BME280;41718;51.980;5.734;2023-06-19T00:27:09;100607.69;;;21.63;100.00
48790;BME280;41718;51.980;5.734;2023-06-19T00:32:10;100616.88;;;21.51;100.00
48790;BME280;41718;51.980;5.734;2023-06-19T00:37:12;100619.53;;;21.50;100.00
48790;BME280;41718;51.980;5.734;2023-06-19T00:42:14;100625.72;;;21.49;100.00
48790;BME280;41718;51.980;5.734;2023-06-19T00:47:16;100638.84;;;21.50;100.00
48790;BME280;41718;51.980;5.734;2023-06-19T00:52:17;100642.56;;;21.43;100.00
48790;BME280;41718;51.980;5.734;2023-06-19T00:57:19;100640.72;;;21.47;100.00
48790;BME280;41718;51.980;5.734;2023-06-19T01:02:21;100648.03;;;21.37;100.00
48790;BME280;41718;51.980;5.734;2023-06-19T01:07:32;100642.97;;;21.31;100.00
48790;BME280;41718;51.980;5.734;2023-06-19T01:13:01;100651.09;;;21.23;100.00
48790;BME280;41718;51.980;5.734;2023-06-19T01:18:04;100650.72;;;21.07;100.00
48790;BME280;41718;51.980;5.734;2023-06-19T01:23:09;100670.44;;;20.94;100.00
48790;BME280;41718;51.980;5.734;2023-06-19T01:28:12;100662.88;;;20.83;100.00
48790;BME280;41718;51.980;5.734;2023-06-19T01:33:20;100664.13;;;20.70;100.00
48790;BME280;41718;51.980;5.734;2023-06-19T01:38:25;100664.50;;;20.59;100.00
48790;BME280;41718;51.980;5.734;2023-06-19T01:43:30;100677.78;;;20.53;100.00
48790;BME280;41718;51.980;5.734;2023-06-19T01:48:35;100669.34;;;20.41;100.00
48790;BME280;41718;51.980;5.734;2023-06-19T01:53:36;100682.81;;;20.30;100.00
48790;BME280;41718;51.980;5.734;2023-06-19T01:58:38;100673.47;;;20.20;100.00
48790;BME280;41718;51.980;5.734;2023-06-19T02:03:39;100684.28;;;20.07;100.00
48790;BME280;41718;51.980;5.734;2023-06-19T02:08:41;100690.56;;;20.03;100.00
48790;BME280;41718;51.980;5.734;2023-06-19T02:13:43;100693.34;;;19.96;100.00
48790;BME280;41718;51.980;5.734;2023-06-19T02:18:44;100694.53;;;19.84;100.00
48790;BME280;41718;51.980;5.734;2023-06-19T02:23:46;100706.06;;;19.78;100.00
48790;BME280;41718;51.980;5.734;2023-06-19T02:28:47;100703.81;;;19.65;100.00
48790;BME280;41718;51.980;5.734;2023-06-19T02:33:49;100711.84;;;19.57;100.00
48790;BME280;41718;51.980;5.734;2023-06-19T02:38:51;100699.03;;;19.43;100.00
48790;BME280;41718;51.980;5.734;2023-06-19T02:43:52;100705.50;;;19.30;100.00
48790;BME280;41718;51.980;5.734;2023-06-19T02:48:54;100706.50;;;19.23;100.00
48790;BME280;41718;51.980;5.734;2023-06-19T02:53:55;100716.97;;;19.24;100.00
48790;BME280;41718;51.980;5.734;2023-06-19T02:58:57;100722.09;;;19.30;100.00
48790;BME280;41718;51.980;5.734;2023-06-19T03:03:59;100715.78;;;19.38;100.00
48790;BME280;41718;51.980;5.734;2023-06-19T03:09:01;100713.97;;;19.41;100.00
48790;BME280;41718;51.980;5.734;2023-06-19T03:14:02;100713.16;;;19.38;100.00
48790;BME280;41718;51.980;5.734;2023-06-19T03:19:08;100714.81;;;19.42;100.00
48790;BME280;41718;51.980;5.734;2023-06-19T03:24:10;100713.22;;;19.36;100.00
48790;BME280;41718;51.980;5.734;2023-06-19T03:29:11;100727.09;;;19.40;100.00
48790;BME280;41718;51.980;5.734;2023-06-19T03:34:13;100725.31;;;19.42;100.00
48790;BME280;41718;51.980;5.734;2023-06-19T03:39:14;100718.31;;;19.42;100.00
48790;BME280;41718;51.980;5.734;2023-06-19T03:44:16;100723.50;;;19.44;100.00
48790;BME280;41718;51.980;5.734;2023-06-19T03:49:18;100721.09;;;19.36;100.00
48790;BME280;41718;51.980;5.734;2023-06-19T03:54:19;100726.56;;;19.25;100.00
48790;BME280;41718;51.980;5.734;2023-06-19T03:59:21;100729.09;;;19.28;100.00
48790;BME280;41718;51.980;5.734;2023-06-19T04:04:23;100730.91;;;19.26;100.00
48790;BME280;41718;51.980;5.734;2023-06-19T04:09:24;100736.13;;;19.28;100.00
48790;BME280;41718;51.980;5.734;2023-06-19T04:14:26;100737.97;;;19.24;100.00
48790;BME280;41718;51.980;5.734;2023-06-19T04:19:28;100739.84;;;19.19;100.00
48790;BME280;41718;51.980;5.734;2023-06-19T04:24:29;100750.41;;;19.15;100.00
48790;BME280;41718;51.980;5.734;2023-06-19T04:29:31;100748.59;;;19.18;100.00
48790;BME280;41718;51.980;5.734;2023-06-19T04:34:33;100767.00;;;19.15;100.00
48790;BME280;41718;51.980;5.734;2023-06-19T04:39:34;100768.53;;;19.25;100.00
48790;BME280;41718;51.980;5.734;2023-06-19T04:44:36;100768.69;;;19.19;100.00
48790;BME280;41718;51.980;5.734;2023-06-19T04:49:38;100761.03;;;19.09;100.00
48790;BME280;41718;51.980;5.734;2023-06-19T04:54:39;100761.44;;;18.90;100.00
48790;BME280;41718;51.980;5.734;2023-06-19T04:59:44;100749.28;;;18.86;100.00
48790;BME280;41718;51.980;5.734;2023-06-19T05:04:46;100728.66;;;18.69;100.00
48790;BME280;41718;51.980;5.734;2023-06-19T05:09:48;100725.94;;;18.74;100.00
48790;BME280;41718;51.980;5.734;2023-06-19T05:14:49;100725.06;;;18.75;100.00
48790;BME280;41718;51.980;5.734;2023-06-19T05:19:51;100731.94;;;18.80;100.00
48790;BME280;41718;51.980;5.734;2023-06-19T05:24:53;100729.31;;;18.80;100.00
48790;BME280;41718;51.980;5.734;2023-06-19T05:29:54;100725.72;;;18.85;100.00
48790;BME280;41718;51.980;5.734;2023-06-19T05:34:56;100720.34;;;18.91;100.00
48790;BME280;41718;51.980;5.734;2023-06-19T05:39:57;100718.63;;;18.90;100.00
48790;BME280;41718;51.980;5.734;2023-06-19T05:44:59;100715.88;;;18.94;100.00
48790;BME280;41718;51.980;5.734;2023-06-19T05:50:01;100708.59;;;19.09;100.00
48790;BME280;41718;51.980;5.734;2023-06-19T05:55:02;100721.56;;;19.15;100.00
48790;BME280;41718;51.980;5.734;2023-06-19T06:00:05;100726.28;;;19.38;100.00
48790;BME280;41718;51.980;5.734;2023-06-19T06:05:08;100738.63;;;19.32;100.00
48790;BME280;41718;51.980;5.734;2023-06-19T06:10:10;100742.78;;;19.43;100.00
48790;BME280;41718;51.980;5.734;2023-06-19T06:15:12;100745.94;;;19.58;100.00
48790;BME280;41718;51.980;5.734;2023-06-19T06:20:13;100757.91;;;19.70;100.00
48790;BME280;41718;51.980;5.734;2023-06-19T06:25:15;100771.84;;;19.72;100.00
48790;BME280;41718;51.980;5.734;2023-06-19T06:30:16;100780.63;;;19.71;100.00
48790;BME280;41718;51.980;5.734;2023-06-19T06:35:20;100786.59;;;19.78;100.00
48790;BME280;41718;51.980;5.734;2023-06-19T06:40:22;100785.47;;;19.88;100.00
48790;BME280;41718;51.980;5.734;2023-06-19T06:45:24;100792.94;;;20.05;100.00
48790;BME280;41718;51.980;5.734;2023-06-19T06:50:28;100804.38;;;20.02;100.00
48790;BME280;41718;51.980;5.734;2023-06-19T06:55:30;100812.38;;;19.98;100.00
48790;BME280;41718;51.980;5.734;2023-06-19T07:00:31;100831.47;;;20.04;100.00
48790;BME280;41718;51.980;5.734;2023-06-19T07:05:33;100851.59;;;20.05;100.00
48790;BME280;41718;51.980;5.734;2023-06-19T07:10:34;100859.25;;;20.15;100.00
48790;BME280;41718;51.980;5.734;2023-06-19T07:15:36;100868.19;;;20.43;100.00
48790;BME280;41718;51.980;5.734;2023-06-19T07:20:37;100885.97;;;20.32;100.00
48790;BME280;41718;51.980;5.734;2023-06-19T07:25:39;100892.25;;;20.26;100.00
48790;BME280;41718;51.980;5.734;2023-06-19T07:30:40;100898.66;;;20.15;100.00
48790;BME280;41718;51.980;5.734;2023-06-19T07:35:42;100896.34;;;20.01;100.00
48790;BME280;41718;51.980;5.734;2023-06-19T07:40:43;100904.31;;;19.98;100.00
48790;BME280;41718;51.980;5.734;2023-06-19T07:45:45;100915.44;;;20.80;100.00
48790;BME280;41718;51.980;5.734;2023-06-19T07:50:47;100928.81;;;21.04;100.00
48790;BME280;41718;51.980;5.734;2023-06-19T07:55:48;100953.00;;;20.85;100.00
48790;BME280;41718;51.980;5.734;2023-06-19T08:00:50;100962.16;;;20.71;100.00
48790;BME280;41718;51.980;5.734;2023-06-19T08:05:51;100966.94;;;20.55;100.00
48790;BME280;41718;51.980;5.734;2023-06-19T08:10:53;100981.19;;;20.80;100.00
48790;BME280;41718;51.980;5.734;2023-06-19T08:15:54;100973.75;;;20.62;100.00
48790;BME280;41718;51.980;5.734;2023-06-19T08:20:56;100973.63;;;20.29;100.00
48790;BME280;41718;51.980;5.734;2023-06-19T08:25:57;100976.41;;;20.23;100.00
48790;BME280;41718;51.980;5.734;2023-06-19T08:30:59;100985.34;;;20.55;100.00
48790;BME280;41718;51.980;5.734;2023-06-19T08:36:01;100994.09;;;20.89;100.00
48790;BME280;41718;51.980;5.734;2023-06-19T08:41:03;101013.41;;;21.23;100.00
48790;BME280;41718;51.980;5.734;2023-06-19T08:46:17;101012.63;;;21.19;100.00
48790;BME280;41718;51.980;5.734;2023-06-19T08:51:19;101025.34;;;21.02;100.00
48790;BME280;41718;51.980;5.734;2023-06-19T08:56:21;101017.16;;;21.14;100.00
48790;BME280;41718;51.980;5.734;2023-06-19T09:01:22;101011.16;;;22.04;100.00
48790;BME280;41718;51.980;5.734;2023-06-19T09:06:24;101015.25;;;21.84;100.00
48790;BME280;41718;51.980;5.734;2023-06-19T09:11:26;101028.75;;;21.41;100.00
48790;BME280;41718;51.980;5.734;2023-06-19T09:16:41;101031.88;;;21.21;100.00
48790;BME280;41718;51.980;5.734;2023-06-19T09:21:43;101023.56;;;21.38;100.00
48790;BME280;41718;51.980;5.734;2023-06-19T09:26:45;101035.28;;;22.49;100.00
48790;BME280;41718;51.980;5.734;2023-06-19T09:31:49;101057.63;;;22.37;100.00
48790;BME280;41718;51.980;5.734;2023-06-19T09:36:51;101068.91;;;22.13;100.00
48790;BME280;41718;51.980;5.734;2023-06-19T09:41:53;101077.91;;;22.91;100.00
48790;BME280;41718;51.980;5.734;2023-06-19T09:47:04;101082.44;;;22.88;100.00
48790;BME280;41718;51.980;5.734;2023-06-19T09:52:11;101077.53;;;23.53;100.00
48790;BME280;41718;51.980;5.734;2023-06-19T09:57:13;101077.72;;;24.46;100.00
48790;BME280;41718;51.980;5.734;2023-06-19T10:02:16;101091.59;;;24.04;100.00
48790;BME280;41718;51.980;5.734;2023-06-19T10:07:20;101100.06;;;24.61;100.00
48790;BME280;41718;51.980;5.734;2023-06-19T10:12:22;101115.53;;;24.01;100.00
48790;BME280;41718;51.980;5.734;2023-06-19T10:17:29;101105.06;;;24.21;100.00
48790;BME280;41718;51.980;5.734;2023-06-19T10:22:31;101091.69;;;24.93;100.00
48790;BME280;41718;51.980;5.734;2023-06-19T10:27:37;101097.13;;;24.68;100.00
48790;BME280;41718;51.980;5.734;2023-06-19T10:32:39;101102.38;;;24.23;100.00
48790;BME280;41718;51.980;5.734;2023-06-19T10:37:42;101108.38;;;24.28;100.00
48790;BME280;41718;51.980;5.734;2023-06-19T10:42:45;101099.03;;;25.70;100.00
48790;BME280;41718;51.980;5.734;2023-06-19T10:47:48;101103.25;;;25.75;100.00
48790;BME280;41718;51.980;5.734;2023-06-19T10:52:53;101101.81;;;25.05;100.00
48790;BME280;41718;51.980;5.734;2023-06-19T10:57:56;101105.84;;;24.92;100.00
48790;BME280;41718;51.980;5.734;2023-06-19T11:02:58;101095.81;;;25.22;100.00
48790;BME280;41718;51.980;5.734;2023-06-19T11:08:00;101103.97;;;24.74;100.00
48790;BME280;41718;51.980;5.734;2023-06-19T11:13:01;101107.06;;;24.62;100.00
48790;BME280;41718;51.980;5.734;2023-06-19T11:18:03;101114.53;;;24.27;100.00
48790;BME280;41718;51.980;5.734;2023-06-19T11:23:05;101104.84;;;24.73;100.00
48790;BME280;41718;51.980;5.734;2023-06-19T11:28:12;101099.53;;;25.79;100.00
48790;BME280;41718;51.980;5.734;2023-06-19T11:33:19;101102.69;;;25.47;100.00
48790;BME280;41718;51.980;5.734;2023-06-19T11:38:25;101109.13;;;25.41;100.00
48790;BME280;41718;51.980;5.734;2023-06-19T11:43:34;101098.53;;;25.41;100.00
48790;BME280;41718;51.980;5.734;2023-06-19T11:48:37;101107.03;;;26.09;100.00
48790;BME280;41718;51.980;5.734;2023-06-19T11:53:39;101097.91;;;26.35;100.00
48790;BME280;41718;51.980;5.734;2023-06-19T11:58:40;101087.81;;;25.64;100.00
48790;BME280;41718;51.980;5.734;2023-06-19T12:03:42;101095.69;;;25.86;100.00
48790;BME280;41718;51.980;5.734;2023-06-19T12:08:44;101088.75;;;26.61;100.00
48790;BME280;41718;51.980;5.734;2023-06-19T12:13:49;101091.78;;;26.14;100.00
48790;BME280;41718;51.980;5.734;2023-06-19T12:18:50;101087.53;;;25.71;100.00
48790;BME280;41718;51.980;5.734;2023-06-19T12:23:52;101078.19;;;26.22;100.00
48790;BME280;41718;51.980;5.734;2023-06-19T12:28:54;101092.63;;;26.14;100.00
48790;BME280;41718;51.980;5.734;2023-06-19T12:33:58;101082.09;;;26.32;100.00
48790;BME280;41718;51.980;5.734;2023-06-19T12:39:00;101081.81;;;26.00;100.00
48790;BME280;41718;51.980;5.734;2023-06-19T12:44:03;101081.25;;;27.23;100.00
48790;BME280;41718;51.980;5.734;2023-06-19T12:49:06;101082.19;;;26.30;100.00
48790;BME280;41718;51.980;5.734;2023-06-19T12:54:07;101088.47;;;27.20;100.00
48790;BME280;41718;51.980;5.734;2023-06-19T12:59:12;101093.22;;;27.48;100.00
48790;BME280;41718;51.980;5.734;2023-06-19T13:04:14;101082.66;;;26.95;100.00
48790;BME280;41718;51.980;5.734;2023-06-19T13:09:22;101079.78;;;26.81;100.00
48790;BME280;41718;51.980;5.734;2023-06-19T13:14:24;101087.84;;;26.79;99.49
48790;BME280;41718;51.980;5.734;2023-06-19T13:19:28;101088.69;;;26.44;100.00
48790;BME280;41718;51.980;5.734;2023-06-19T13:24:29;101082.53;;;26.79;100.00
48790;BME280;41718;51.980;5.734;2023-06-19T13:29:31;101074.50;;;26.98;99.59
48790;BME280;41718;51.980;5.734;2023-06-19T13:34:32;101089.50;;;26.06;100.00
48790;BME280;41718;51.980;5.734;2023-06-19T13:39:34;101092.16;;;26.63;100.00
48790;BME280;41718;51.980;5.734;2023-06-19T13:44:36;101090.72;;;26.75;100.00
48790;BME280;41718;51.980;5.734;2023-06-19T13:49:39;101090.44;;;26.43;100.00
48790;BME280;41718;51.980;5.734;2023-06-19T13:54:40;101086.25;;;26.37;100.00
48790;BME280;41718;51.980;5.734;2023-06-19T13:59:42;101079.41;;;26.52;100.00
48790;BME280;41718;51.980;5.734;2023-06-19T14:04:44;101076.72;;;26.71;100.00
48790;BME280;41718;51.980;5.734;2023-06-19T14:09:46;101073.81;;;26.58;100.00
48790;BME280;41718;51.980;5.734;2023-06-19T14:14:47;101077.44;;;26.75;100.00
48790;BME280;41718;51.980;5.734;2023-06-19T14:19:49;101067.50;;;26.23;100.00
48790;BME280;41718;51.980;5.734;2023-06-19T14:24:54;101066.38;;;26.84;100.00
48790;BME280;41718;51.980;5.734;2023-06-19T14:30:00;101075.59;;;26.39;100.00
48790;BME280;41718;51.980;5.734;2023-06-19T14:35:03;101069.28;;;26.23;100.00
48790;BME280;41718;51.980;5.734;2023-06-19T14:40:05;101063.41;;;26.35;100.00
48790;BME280;41718;51.980;5.734;2023-06-19T14:45:07;101072.94;;;26.39;100.00
48790;BME280;41718;51.980;5.734;2023-06-19T14:50:09;101057.44;;;26.67;100.00
48790;BME280;41718;51.980;5.734;2023-06-19T14:55:11;101063.00;;;25.86;100.00
48790;BME280;41718;51.980;5.734;2023-06-19T15:00:13;101063.41;;;26.16;100.00
48790;BME280;41718;51.980;5.734;2023-06-19T15:05:15;101068.06;;;26.49;100.00
48790;BME280;41718;51.980;5.734;2023-06-19T15:10:16;101064.31;;;25.96;100.00
48790;BME280;41718;51.980;5.734;2023-06-19T15:15:18;101058.88;;;26.37;100.00
48790;BME280;41718;51.980;5.734;2023-06-19T15:20:20;101055.75;;;26.10;100.00
48790;BME280;41718;51.980;5.734;2023-06-19T15:25:22;101055.00;;;26.06;100.00
48790;BME280;41718;51.980;5.734;2023-06-19T15:30:24;101043.25;;;26.12;100.00
48790;BME280;41718;51.980;5.734;2023-06-19T15:35:26;101043.69;;;26.22;100.00
48790;BME280;41718;51.980;5.734;2023-06-19T15:40:28;101049.47;;;26.30;100.00
48790;BME280;41718;51.980;5.734;2023-06-19T15:45:30;101044.03;;;26.14;100.00
48790;BME280;41718;51.980;5.734;2023-06-19T15:50:31;101048.06;;;25.64;100.00
48790;BME280;41718;51.980;5.734;2023-06-19T15:55:34;101042.16;;;25.97;100.00
48790;BME280;41718;51.980;5.734;2023-06-19T16:00:36;101034.44;;;25.93;100.00
48790;BME280;41718;51.980;5.734;2023-06-19T16:05:38;101029.44;;;26.05;100.00
48790;BME280;41718;51.980;5.734;2023-06-19T16:10:39;101029.63;;;26.20;100.00
48790;BME280;41718;51.980;5.734;2023-06-19T16:15:41;101032.34;;;26.37;100.00
48790;BME280;41718;51.980;5.734;2023-06-19T16:20:43;101035.75;;;26.94;100.00
48790;BME280;41718;51.980;5.734;2023-06-19T16:25:44;101029.94;;;26.32;100.00
48790;BME280;41718;51.980;5.734;2023-06-19T16:30:46;101037.16;;;26.29;100.00
48790;BME280;41718;51.980;5.734;2023-06-19T16:35:47;101026.28;;;27.06;100.00
48790;BME280;41718;51.980;5.734;2023-06-19T16:40:49;101023.53;;;26.17;100.00
48790;BME280;41718;51.980;5.734;2023-06-19T16:45:50;101025.69;;;27.01;99.23
48790;BME280;41718;51.980;5.734;2023-06-19T16:50:52;101028.38;;;27.35;96.50
48790;BME280;41718;51.980;5.734;2023-06-19T16:55:53;101027.06;;;27.60;98.27
48790;BME280;41718;51.980;5.734;2023-06-19T17:00:59;101032.47;;;27.58;99.91
48790;BME280;41718;51.980;5.734;2023-06-19T17:06:01;101021.00;;;27.40;96.83
48790;BME280;41718;51.980;5.734;2023-06-19T17:11:02;101026.84;;;27.47;97.66
48790;BME280;41718;51.980;5.734;2023-06-19T17:16:04;101021.56;;;27.30;98.61
48790;BME280;41718;51.980;5.734;2023-06-19T17:21:06;101026.09;;;27.61;97.39
48790;BME280;41718;51.980;5.734;2023-06-19T17:26:08;101022.50;;;27.62;96.47
48790;BME280;41718;51.980;5.734;2023-06-19T17:31:09;101009.69;;;27.19;96.63
48790;BME280;41718;51.980;5.734;2023-06-19T17:36:11;101008.50;;;27.42;97.47
48790;BME280;41718;51.980;5.734;2023-06-19T17:41:12;101013.75;;;27.27;96.93
48790;BME280;41718;51.980;5.734;2023-06-19T17:46:14;101018.25;;;27.42;96.77
48790;BME280;41718;51.980;5.734;2023-06-19T17:51:16;101014.91;;;27.04;98.65
48790;BME280;41718;51.980;5.734;2023-06-19T17:56:17;101012.16;;;26.88;98.87
48790;BME280;41718;51.980;5.734;2023-06-19T18:01:19;101004.09;;;26.36;100.00
48790;BME280;41718;51.980;5.734;2023-06-19T18:06:22;101000.88;;;26.29;100.00
48790;BME280;41718;51.980;5.734;2023-06-19T18:11:24;101011.00;;;26.21;100.00
48790;BME280;41718;51.980;5.734;2023-06-19T18:16:26;101007.03;;;26.30;100.00
48790;BME280;41718;51.980;5.734;2023-06-19T18:21:30;101015.06;;;25.90;100.00
48790;BME280;41718;51.980;5.734;2023-06-19T18:26:32;101009.41;;;25.79;100.00
48790;BME280;41718;51.980;5.734;2023-06-19T18:31:33;101024.66;;;25.74;100.00
48790;BME280;41718;51.980;5.734;2023-06-19T18:36:35;101024.81;;;25.51;100.00
48790;BME280;41718;51.980;5.734;2023-06-19T18:41:37;101026.28;;;25.37;100.00
48790;BME280;41718;51.980;5.734;2023-06-19T18:46:56;101027.03;;;24.99;100.00
48790;BME280;41718;51.980;5.734;2023-06-19T18:52:14;101022.50;;;24.80;100.00
48790;BME280;41718;51.980;5.734;2023-06-19T18:57:22;101023.03;;;24.68;100.00
48790;BME280;41718;51.980;5.734;2023-06-19T19:02:29;101030.66;;;24.54;100.00
48790;BME280;41718;51.980;5.734;2023-06-19T19:07:34;101039.94;;;24.19;100.00
48790;BME280;41718;51.980;5.734;2023-06-19T19:12:39;101042.03;;;24.32;100.00
48790;BME280;41718;51.980;5.734;2023-06-19T19:17:49;101052.94;;;23.78;100.00
48790;BME280;41718;51.980;5.734;2023-06-19T19:23:08;101048.63;;;23.50;100.00
48790;BME280;41718;51.980;5.734;2023-06-19T19:28:15;101056.31;;;23.57;100.00
48790;BME280;41718;51.980;5.734;2023-06-19T19:33:19;101060.41;;;23.40;100.00
48790;BME280;41718;51.980;5.734;2023-06-19T19:38:22;101053.09;;;22.97;100.00
48790;BME280;41718;51.980;5.734;2023-06-19T19:43:28;101050.28;;;22.75;100.00
48790;BME280;41718;51.980;5.734;2023-06-19T19:48:30;101065.91;;;22.53;100.00
48790;BME280;41718;51.980;5.734;2023-06-19T19:53:55;101072.47;;;22.40;100.00
48790;BME280;41718;51.980;5.734;2023-06-19T19:59:02;101073.09;;;22.20;100.00
48790;BME280;41718;51.980;5.734;2023-06-19T20:04:14;101064.00;;;21.99;100.00
48790;BME280;41718;51.980;5.734;2023-06-19T20:09:19;101085.41;;;21.56;100.00
48790;BME280;41718;51.980;5.734;2023-06-19T20:14:24;101080.38;;;21.47;100.00
48790;BME280;41718;51.980;5.734;2023-06-19T20:19:35;101086.97;;;21.29;100.00
48790;BME280;41718;51.980;5.734;2023-06-19T20:24:48;101099.94;;;21.36;100.00
48790;BME280;41718;51.980;5.734;2023-06-19T20:29:52;101099.19;;;21.31;100.00
48790;BME280;41718;51.980;5.734;2023-06-19T20:35:01;101097.06;;;21.10;100.00
48790;BME280;41718;51.980;5.734;2023-06-19T20:40:06;101093.25;;;20.87;100.00
48790;BME280;41718;51.980;5.734;2023-06-19T20:50:59;101109.56;;;20.63;100.00
48790;BME280;41718;51.980;5.734;2023-06-19T20:56:02;101111.91;;;20.75;100.00
48790;BME280;41718;51.980;5.734;2023-06-19T21:01:06;101116.50;;;20.67;100.00
48790;BME280;41718;51.980;5.734;2023-06-19T21:06:09;101115.06;;;20.54;100.00
48790;BME280;41718;51.980;5.734;2023-06-19T21:11:11;101116.06;;;20.48;100.00
48790;BME280;41718;51.980;5.734;2023-06-19T21:16:13;101121.31;;;20.47;100.00
48790;BME280;41718;51.980;5.734;2023-06-19T21:21:17;101121.31;;;20.48;100.00
48790;BME280;41718;51.980;5.734;2023-06-19T21:26:22;101126.81;;;20.34;100.00
48790;BME280;41718;51.980;5.734;2023-06-19T21:31:24;101131.16;;;20.35;100.00
48790;BME280;41718;51.980;5.734;2023-06-19T21:36:26;101124.28;;;20.30;100.00
48790;BME280;41718;51.980;5.734;2023-06-19T21:41:27;101119.16;;;20.24;100.00
48790;BME280;41718;51.980;5.734;2023-06-19T21:46:38;101107.75;;;20.25;100.00
48790;BME280;41718;51.980;5.734;2023-06-19T21:51:43;101108.94;;;20.10;100.00
48790;BME280;41718;51.980;5.734;2023-06-19T21:56:46;101106.13;;;20.18;100.00
48790;BME280;41718;51.980;5.734;2023-06-19T22:01:48;101095.13;;;20.00;100.00
48790;BME280;41718;51.980;5.734;2023-06-19T22:06:49;101095.41;;;19.87;100.00
48790;BME280;41718;51.980;5.734;2023-06-19T22:11:52;101099.72;;;19.89;100.00
48790;BME280;41718;51.980;5.734;2023-06-19T22:16:57;101085.75;;;19.87;100.00
48790;BME280;41718;51.980;5.734;2023-06-19T22:22:02;101084.00;;;19.88;100.00
48790;BME280;41718;51.980;5.734;2023-06-19T22:27:05;101091.88;;;19.88;100.00
48790;BME280;41718;51.980;5.734;2023-06-19T22:32:07;101085.03;;;19.79;100.00
48790;BME280;41718;51.980;5.734;2023-06-19T22:37:09;101080.78;;;19.72;100.00
48790;BME280;41718;51.980;5.734;2023-06-19T22:42:11;101083.56;;;19.64;100.00
48790;BME280;41718;51.980;5.734;2023-06-19T22:47:13;101077.34;;;19.68;100.00
48790;BME280;41718;51.980;5.734;2023-06-19T22:52:14;101077.31;;;19.71;100.00
48790;BME280;41718;51.980;5.734;2023-06-19T22:57:16;101070.41;;;19.66;100.00
48790;BME280;41718;51.980;5.734;2023-06-19T23:02:17;101072.13;;;19.67;100.00
48790;BME280;41718;51.980;5.734;2023-06-19T23:07:19;101060.53;;;19.78;100.00
48790;BME280;41718;51.980;5.734;2023-06-19T23:12:21;101058.72;;;19.82;100.00
48790;BME280;41718;51.980;5.734;2023-06-19T23:17:23;101064.00;;;19.80;100.00
48790;BME280;41718;51.980;5.734;2023-06-19T23:22:25;101059.53;;;19.84;100.00
48790;BME280;41718;51.980;5.734;2023-06-19T23:27:27;101069.91;;;19.90;100.00
48790;BME280;41718;51.980;5.734;2023-06-19T23:32:28;101072.59;;;19.89;100.00
48790;BME280;41718;51.980;5.734;2023-06-19T23:37:31;101065.56;;;19.89;100.00
48790;BME280;41718;51.980;5.734;2023-06-19T23:42:32;101069.78;;;19.98;100.00
48790;BME280;41718;51.980;5.734;2023-06-19T23:47:34;101060.22;;;19.94;100.00
48790;BME280;41718;51.980;5.734;2023-06-19T23:52:35;101060.19;;;19.97;100.00
48790;BME280;41718;51.980;5.734;2023-06-19T23:57:44;101061.91;;;19.98;100.00
